sensor_id;sensor_type;location;lat;lon;timestamp;pressure;altitude;pressure_sealevel;temperature
18782;BMP180;9519;51.890;8.970;2022-08-07T00:00:20;100428.00;;;12.80
18782;BMP180;9519;51.890;8.970;2022-08-07T00:05:23;100428.00;;;12.70
18782;BMP180;9519;51.890;8.970;2022-08-07T00:10:27;100431.00;;;12.60
18782;BMP180;9519;51.890;8.970;2022-08-07T00:15:31;100430.00;;;12.50
18782;BMP180;9519;51.890;8.970;2022-08-07T00:20:33;100428.00;;;12.50
18782;BMP180;9519;51.890;8.970;2022-08-07T00:25:37;100427.00;;;12.50
18782;BMP180;9519;51.890;8.970;2022-08-07T00:30:39;100428.00;;;12.40
18782;BMP180;9519;51.890;8.970;2022-08-07T00:35:41;100426.00;;;12.30
18782;BMP180;9519;51.890;8.970;2022-08-07T00:40:44;100429.00;;;12.20
18782;BMP180;9519;51.890;8.970;2022-08-07T00:45:46;100415.00;;;12.20
18782;BMP180;9519;51.890;8.970;2022-08-07T00:50:50;100413.00;;;12.10
18782;BMP180;9519;51.890;8.970;2022-08-07T00:55:54;100419.00;;;12.00
18782;BMP180;9519;51.890;8.970;2022-08-07T01:00:56;100404.00;;;12.00
18782;BMP180;9519;51.890;8.970;2022-08-07T01:05:58;100410.00;;;12.00
18782;BMP180;9519;51.890;8.970;2022-08-07T01:11:02;100398.00;;;12.00
18782;BMP180;9519;51.890;8.970;2022-08-07T01:16:06;100401.00;;;11.90
18782;BMP180;9519;51.890;8.970;2022-08-07T01:21:12;100399.00;;;11.90
18782;BMP180;9519;51.890;8.970;2022-08-07T01:26:17;100398.00;;;11.80
18782;BMP180;9519;51.890;8.970;2022-08-07T01:31:21;100406.00;;;11.80
18782;BMP180;9519;51.890;8.970;2022-08-07T01:36:29;100394.00;;;11.70
18782;BMP180;9519;51.890;8.970;2022-08-07T01:41:32;100385.00;;;11.70
18782;BMP180;9519;51.890;8.970;2022-08-07T01:46:34;100390.00;;;11.60
18782;BMP180;9519;51.890;8.970;2022-08-07T01:51:41;100389.00;;;11.60
18782;BMP180;9519;51.890;8.970;2022-08-07T01:56:48;100389.00;;;11.50
18782;BMP180;9519;51.890;8.970;2022-08-07T02:01:59;100379.00;;;11.50
18782;BMP180;9519;51.890;8.970;2022-08-07T02:07:05;100378.00;;;11.40
18782;BMP180;9519;51.890;8.970;2022-08-07T02:12:12;100382.00;;;11.30
18782;BMP180;9519;51.890;8.970;2022-08-07T02:17:18;100377.00;;;11.30
18782;BMP180;9519;51.890;8.970;2022-08-07T02:22:24;100375.00;;;11.30
18782;BMP180;9519;51.890;8.970;2022-08-07T02:27:28;100364.00;;;11.30
18782;BMP180;9519;51.890;8.970;2022-08-07T02:32:32;100363.00;;;11.20
18782;BMP180;9519;51.890;8.970;2022-08-07T02:37:39;100359.00;;;11.20
18782;BMP180;9519;51.890;8.970;2022-08-07T02:42:43;100364.00;;;11.10
18782;BMP180;9519;51.890;8.970;2022-08-07T02:47:47;100361.00;;;11.10
18782;BMP180;9519;51.890;8.970;2022-08-07T02:52:59;100359.00;;;11.10
18782;BMP180;9519;51.890;8.970;2022-08-07T02:58:09;100357.00;;;11.00
18782;BMP180;9519;51.890;8.970;2022-08-07T03:03:15;100359.00;;;11.00
18782;BMP180;9519;51.890;8.970;2022-08-07T03:08:20;100355.00;;;11.00
18782;BMP180;9519;51.890;8.970;2022-08-07T03:13:23;100361.00;;;10.90
18782;BMP180;9519;51.890;8.970;2022-08-07T03:18:26;100359.00;;;10.90
18782;BMP180;9519;51.890;8.970;2022-08-07T03:23:31;100354.00;;;10.80
18782;BMP180;9519;51.890;8.970;2022-08-07T03:28:35;100347.00;;;10.80
18782;BMP180;9519;51.890;8.970;2022-08-07T03:33:39;100347.00;;;10.80
18782;BMP180;9519;51.890;8.970;2022-08-07T03:38:44;100358.00;;;10.80
18782;BMP180;9519;51.890;8.970;2022-08-07T03:43:47;100340.00;;;10.70
18782;BMP180;9519;51.890;8.970;2022-08-07T03:48:51;100345.00;;;10.70
18782;BMP180;9519;51.890;8.970;2022-08-07T03:53:55;100350.00;;;10.70
18782;BMP180;9519;51.890;8.970;2022-08-07T03:58:57;100349.00;;;10.60
18782;BMP180;9519;51.890;8.970;2022-08-07T04:04:00;100368.00;;;10.60
18782;BMP180;9519;51.890;8.970;2022-08-07T04:09:05;100364.00;;;10.50
18782;BMP180;9519;51.890;8.970;2022-08-07T04:14:08;100363.00;;;10.50
18782;BMP180;9519;51.890;8.970;2022-08-07T04:19:11;100351.00;;;10.50
18782;BMP180;9519;51.890;8.970;2022-08-07T04:24:15;100360.00;;;10.50
18782;BMP180;9519;51.890;8.970;2022-08-07T04:29:18;100366.00;;;10.50
18782;BMP180;9519;51.890;8.970;2022-08-07T04:34:21;100354.00;;;10.50
18782;BMP180;9519;51.890;8.970;2022-08-07T04:39:25;100354.00;;;10.50
18782;BMP180;9519;51.890;8.970;2022-08-07T04:44:28;100356.00;;;10.50
18782;BMP180;9519;51.890;8.970;2022-08-07T04:49:43;100356.00;;;10.50
18782;BMP180;9519;51.890;8.970;2022-08-07T04:54:56;100357.00;;;10.60
18782;BMP180;9519;51.890;8.970;2022-08-07T05:00:05;100359.00;;;10.60
18782;BMP180;9519;51.890;8.970;2022-08-07T05:05:17;100359.00;;;10.70
18782;BMP180;9519;51.890;8.970;2022-08-07T05:10:32;100368.00;;;10.80
18782;BMP180;9519;51.890;8.970;2022-08-07T05:15:41;100357.00;;;10.90
18782;BMP180;9519;51.890;8.970;2022-08-07T05:20:50;100362.00;;;11.00
18782;BMP180;9519;51.890;8.970;2022-08-07T05:25:55;100375.00;;;11.10
18782;BMP180;9519;51.890;8.970;2022-08-07T05:30:59;100368.00;;;11.10
18782;BMP180;9519;51.890;8.970;2022-08-07T05:36:03;100374.00;;;11.30
18782;BMP180;9519;51.890;8.970;2022-08-07T05:41:09;100388.00;;;11.40
18782;BMP180;9519;51.890;8.970;2022-08-07T05:46:12;100383.00;;;11.50
18782;BMP180;9519;51.890;8.970;2022-08-07T05:51:17;100393.00;;;11.70
18782;BMP180;9519;51.890;8.970;2022-08-07T05:56:21;100392.00;;;11.80
18782;BMP180;9519;51.890;8.970;2022-08-07T06:01:26;100393.00;;;12.00
18782;BMP180;9519;51.890;8.970;2022-08-07T06:06:32;100394.00;;;12.10
18782;BMP180;9519;51.890;8.970;2022-08-07T06:11:37;100389.00;;;12.20
18782;BMP180;9519;51.890;8.970;2022-08-07T06:16:43;100391.00;;;12.40
18782;BMP180;9519;51.890;8.970;2022-08-07T06:21:47;100402.00;;;12.50
18782;BMP180;9519;51.890;8.970;2022-08-07T06:26:51;100408.00;;;12.70
18782;BMP180;9519;51.890;8.970;2022-08-07T06:31:53;100407.00;;;12.90
18782;BMP180;9519;51.890;8.970;2022-08-07T06:36:55;100404.00;;;13.10
18782;BMP180;9519;51.890;8.970;2022-08-07T06:42:05;100405.00;;;13.20
18782;BMP180;9519;51.890;8.970;2022-08-07T06:47:07;100404.00;;;13.40
18782;BMP180;9519;51.890;8.970;2022-08-07T06:52:11;100403.00;;;13.60
18782;BMP180;9519;51.890;8.970;2022-08-07T06:57:18;100404.00;;;13.80
18782;BMP180;9519;51.890;8.970;2022-08-07T07:02:22;100388.00;;;14.00
18782;BMP180;9519;51.890;8.970;2022-08-07T07:07:25;100390.00;;;14.20
18782;BMP180;9519;51.890;8.970;2022-08-07T07:12:40;100386.00;;;14.40
18782;BMP180;9519;51.890;8.970;2022-08-07T07:17:52;100391.00;;;14.60
18782;BMP180;9519;51.890;8.970;2022-08-07T07:22:56;100393.00;;;14.80
18782;BMP180;9519;51.890;8.970;2022-08-07T07:28:08;100380.00;;;15.00
18782;BMP180;9519;51.890;8.970;2022-08-07T07:33:15;100381.00;;;15.20
18782;BMP180;9519;51.890;8.970;2022-08-07T07:38:22;100377.00;;;15.40
18782;BMP180;9519;51.890;8.970;2022-08-07T07:43:31;100376.00;;;15.60
18782;BMP180;9519;51.890;8.970;2022-08-07T07:48:36;100365.00;;;15.90
18782;BMP180;9519;51.890;8.970;2022-08-07T07:53:44;100367.00;;;16.10
18782;BMP180;9519;51.890;8.970;2022-08-07T07:58:48;100350.00;;;16.40
18782;BMP180;9519;51.890;8.970;2022-08-07T08:03:54;100349.00;;;16.70
18782;BMP180;9519;51.890;8.970;2022-08-07T08:09:02;100340.00;;;16.90
18782;BMP180;9519;51.890;8.970;2022-08-07T08:14:06;100343.00;;;17.10
18782;BMP180;9519;51.890;8.970;2022-08-07T08:19:14;100334.00;;;17.40
18782;BMP180;9519;51.890;8.970;2022-08-07T08:24:18;100322.00;;;17.60
18782;BMP180;9519;51.890;8.970;2022-08-07T08:29:45;100314.00;;;17.80
18782;BMP180;9519;51.890;8.970;2022-08-07T08:34:51;100320.00;;;18.00
18782;BMP180;9519;51.890;8.970;2022-08-07T08:39:56;100315.00;;;18.20
18782;BMP180;9519;51.890;8.970;2022-08-07T08:45:11;100301.00;;;18.30
18782;BMP180;9519;51.890;8.970;2022-08-07T08:50:21;100297.00;;;18.50
18782;BMP180;9519;51.890;8.970;2022-08-07T08:55:33;100293.00;;;18.80
18782;BMP180;9519;51.890;8.970;2022-08-07T09:00:43;100261.00;;;19.00
18782;BMP180;9519;51.890;8.970;2022-08-07T09:05:53;100250.00;;;19.10
18782;BMP180;9519;51.890;8.970;2022-08-07T09:11:14;100248.00;;;19.30
18782;BMP180;9519;51.890;8.970;2022-08-07T09:16:34;100238.00;;;19.40
18782;BMP180;9519;51.890;8.970;2022-08-07T09:21:51;100210.00;;;19.50
18782;BMP180;9519;51.890;8.970;2022-08-07T09:27:04;100215.00;;;19.60
18782;BMP180;9519;51.890;8.970;2022-08-07T09:32:22;100210.00;;;19.70
18782;BMP180;9519;51.890;8.970;2022-08-07T09:37:37;100206.00;;;19.80
18782;BMP180;9519;51.890;8.970;2022-08-07T09:43:02;100219.00;;;19.90
18782;BMP180;9519;51.890;8.970;2022-08-07T09:48:33;100223.00;;;20.00
18782;BMP180;9519;51.890;8.970;2022-08-07T09:53:39;100214.00;;;20.10
18782;BMP180;9519;51.890;8.970;2022-08-07T09:59:05;100197.00;;;20.20
18782;BMP180;9519;51.890;8.970;2022-08-07T10:04:30;100195.00;;;20.40
18782;BMP180;9519;51.890;8.970;2022-08-07T10:10:01;100168.00;;;20.60
18782;BMP180;9519;51.890;8.970;2022-08-07T10:15:29;100167.00;;;20.70
18782;BMP180;9519;51.890;8.970;2022-08-07T10:20:54;100159.00;;;20.90
18782;BMP180;9519;51.890;8.970;2022-08-07T10:26:19;100147.00;;;21.10
18782;BMP180;9519;51.890;8.970;2022-08-07T10:31:51;100160.00;;;21.20
18782;BMP180;9519;51.890;8.970;2022-08-07T10:37:12;100170.00;;;21.40
18782;BMP180;9519;51.890;8.970;2022-08-07T10:42:31;100152.00;;;21.60
18782;BMP180;9519;51.890;8.970;2022-08-07T10:47:48;100128.00;;;21.60
18782;BMP180;9519;51.890;8.970;2022-08-07T10:53:02;100263.00;;;21.60
18782;BMP180;9519;51.890;8.970;2022-08-07T10:58:19;100256.00;;;21.80
18782;BMP180;9519;51.890;8.970;2022-08-07T11:03:39;100259.00;;;22.00
18782;BMP180;9519;51.890;8.970;2022-08-07T11:08:50;100243.00;;;22.10
18782;BMP180;9519;51.890;8.970;2022-08-07T11:13:58;100237.00;;;22.20
18782;BMP180;9519;51.890;8.970;2022-08-07T11:19:10;100238.00;;;22.10
18782;BMP180;9519;51.890;8.970;2022-08-07T11:24:23;100221.00;;;22.20
18782;BMP180;9519;51.890;8.970;2022-08-07T11:29:37;100225.00;;;22.30
18782;BMP180;9519;51.890;8.970;2022-08-07T11:34:48;100218.00;;;22.40
18782;BMP180;9519;51.890;8.970;2022-08-07T11:40:12;100214.00;;;22.60
18782;BMP180;9519;51.890;8.970;2022-08-07T11:45:36;100210.00;;;22.80
18782;BMP180;9519;51.890;8.970;2022-08-07T11:51:01;100205.00;;;22.80
18782;BMP180;9519;51.890;8.970;2022-08-07T11:56:27;100205.00;;;22.80
18782;BMP180;9519;51.890;8.970;2022-08-07T12:01:54;100194.00;;;22.90
18782;BMP180;9519;51.890;8.970;2022-08-07T12:07:05;100200.00;;;23.00
18782;BMP180;9519;51.890;8.970;2022-08-07T12:12:17;100193.00;;;22.90
18782;BMP180;9519;51.890;8.970;2022-08-07T12:17:29;100190.00;;;23.00
18782;BMP180;9519;51.890;8.970;2022-08-07T12:22:40;100186.00;;;23.10
18782;BMP180;9519;51.890;8.970;2022-08-07T12:27:53;100186.00;;;23.30
18782;BMP180;9519;51.890;8.970;2022-08-07T12:33:01;100180.00;;;23.30
18782;BMP180;9519;51.890;8.970;2022-08-07T12:38:07;100175.00;;;23.40
18782;BMP180;9519;51.890;8.970;2022-08-07T12:43:14;100157.00;;;23.50
18782;BMP180;9519;51.890;8.970;2022-08-07T12:48:28;100175.00;;;23.60
18782;BMP180;9519;51.890;8.970;2022-08-07T12:53:41;100157.00;;;23.70
18782;BMP180;9519;51.890;8.970;2022-08-07T12:58:48;100153.00;;;23.80
18782;BMP180;9519;51.890;8.970;2022-08-07T13:04:23;100147.00;;;24.00
18782;BMP180;9519;51.890;8.970;2022-08-07T13:09:49;100142.00;;;24.10
18782;BMP180;9519;51.890;8.970;2022-08-07T13:15:15;100145.00;;;24.30
18782;BMP180;9519;51.890;8.970;2022-08-07T13:20:34;100141.00;;;24.40
18782;BMP180;9519;51.890;8.970;2022-08-07T13:25:49;100134.00;;;24.60
18782;BMP180;9519;51.890;8.970;2022-08-07T13:31:15;100127.00;;;24.80
18782;BMP180;9519;51.890;8.970;2022-08-07T13:36:24;100116.00;;;24.90
18782;BMP180;9519;51.890;8.970;2022-08-07T13:41:38;100110.00;;;24.80
18782;BMP180;9519;51.890;8.970;2022-08-07T13:46:46;100097.00;;;24.40
18782;BMP180;9519;51.890;8.970;2022-08-07T13:51:53;100101.00;;;24.40
18782;BMP180;9519;51.890;8.970;2022-08-07T13:56:56;100101.00;;;24.60
18782;BMP180;9519;51.890;8.970;2022-08-07T14:02:06;100100.00;;;24.80
18782;BMP180;9519;51.890;8.970;2022-08-07T14:07:10;100093.00;;;25.20
18782;BMP180;9519;51.890;8.970;2022-08-07T14:12:33;100090.00;;;25.60
18782;BMP180;9519;51.890;8.970;2022-08-07T14:17:40;100080.00;;;26.00
18782;BMP180;9519;51.890;8.970;2022-08-07T14:22:50;100077.00;;;26.30
18782;BMP180;9519;51.890;8.970;2022-08-07T14:27:55;100073.00;;;26.80
18782;BMP180;9519;51.890;8.970;2022-08-07T14:33:01;100065.00;;;27.20
18782;BMP180;9519;51.890;8.970;2022-08-07T14:38:05;100064.00;;;27.60
18782;BMP180;9519;51.890;8.970;2022-08-07T14:43:11;100061.00;;;28.00
18782;BMP180;9519;51.890;8.970;2022-08-07T14:48:26;100049.00;;;28.30
18782;BMP180;9519;51.890;8.970;2022-08-07T14:53:33;100042.00;;;28.60
18782;BMP180;9519;51.890;8.970;2022-08-07T14:58:43;100039.00;;;29.00
18782;BMP180;9519;51.890;8.970;2022-08-07T15:03:47;100034.00;;;29.40
18782;BMP180;9519;51.890;8.970;2022-08-07T15:08:51;100035.00;;;29.60
18782;BMP180;9519;51.890;8.970;2022-08-07T15:13:58;100025.00;;;29.60
18782;BMP180;9519;51.890;8.970;2022-08-07T15:19:06;100021.00;;;29.80
18782;BMP180;9519;51.890;8.970;2022-08-07T15:24:16;100020.00;;;30.20
18782;BMP180;9519;51.890;8.970;2022-08-07T15:29:21;100013.00;;;30.60
18782;BMP180;9519;51.890;8.970;2022-08-07T15:34:28;100010.00;;;31.00
18782;BMP180;9519;51.890;8.970;2022-08-07T15:39:40;100006.00;;;30.90
18782;BMP180;9519;51.890;8.970;2022-08-07T15:44:47;100017.00;;;31.00
18782;BMP180;9519;51.890;8.970;2022-08-07T15:49:54;100003.00;;;30.80
18782;BMP180;9519;51.890;8.970;2022-08-07T15:55:00;100002.00;;;30.30
18782;BMP180;9519;51.890;8.970;2022-08-07T16:00:05;100008.00;;;29.80
18782;BMP180;9519;51.890;8.970;2022-08-07T16:05:19;99999.00;;;29.30
18782;BMP180;9519;51.890;8.970;2022-08-07T16:10:26;100009.00;;;28.70
18782;BMP180;9519;51.890;8.970;2022-08-07T16:15:42;99997.00;;;28.40
18782;BMP180;9519;51.890;8.970;2022-08-07T16:20:53;100005.00;;;28.00
18782;BMP180;9519;51.890;8.970;2022-08-07T16:26:09;100008.00;;;27.80
18782;BMP180;9519;51.890;8.970;2022-08-07T16:31:25;100008.00;;;27.70
18782;BMP180;9519;51.890;8.970;2022-08-07T16:36:55;100005.00;;;27.50
18782;BMP180;9519;51.890;8.970;2022-08-07T16:42:40;100010.00;;;27.30
18782;BMP180;9519;51.890;8.970;2022-08-07T16:53:54;100011.00;;;27.80
18782;BMP180;9519;51.890;8.970;2022-08-07T16:59:05;100014.00;;;27.90
18782;BMP180;9519;51.890;8.970;2022-08-07T17:04:17;100009.00;;;28.10
18782;BMP180;9519;51.890;8.970;2022-08-07T17:09:36;100008.00;;;28.10
18782;BMP180;9519;51.890;8.970;2022-08-07T17:14:52;100004.00;;;28.00
18782;BMP180;9519;51.890;8.970;2022-08-07T17:20:05;100010.00;;;28.00
18782;BMP180;9519;51.890;8.970;2022-08-07T17:25:18;100009.00;;;28.00
18782;BMP180;9519;51.890;8.970;2022-08-07T17:30:25;99997.00;;;27.90
18782;BMP180;9519;51.890;8.970;2022-08-07T17:35:51;100009.00;;;27.60
18782;BMP180;9519;51.890;8.970;2022-08-07T17:41:05;100006.00;;;27.20
18782;BMP180;9519;51.890;8.970;2022-08-07T17:46:12;100012.00;;;26.80
18782;BMP180;9519;51.890;8.970;2022-08-07T17:51:21;100008.00;;;26.40
18782;BMP180;9519;51.890;8.970;2022-08-07T17:56:31;100012.00;;;26.10
18782;BMP180;9519;51.890;8.970;2022-08-07T18:01:46;100012.00;;;25.70
18782;BMP180;9519;51.890;8.970;2022-08-07T18:06:56;100021.00;;;25.30
18782;BMP180;9519;51.890;8.970;2022-08-07T18:12:09;100020.00;;;24.90
18782;BMP180;9519;51.890;8.970;2022-08-07T18:17:31;100023.00;;;24.70
18782;BMP180;9519;51.890;8.970;2022-08-07T18:22:43;99913.00;;;24.40
18782;BMP180;9519;51.890;8.970;2022-08-07T18:28:13;99927.00;;;24.10
18782;BMP180;9519;51.890;8.970;2022-08-07T18:33:47;99923.00;;;23.90
18782;BMP180;9519;51.890;8.970;2022-08-07T18:39:14;99938.00;;;23.60
18782;BMP180;9519;51.890;8.970;2022-08-07T18:44:33;99939.00;;;23.30
18782;BMP180;9519;51.890;8.970;2022-08-07T18:49:52;99949.00;;;23.00
18782;BMP180;9519;51.890;8.970;2022-08-07T18:55:14;99942.00;;;22.80
18782;BMP180;9519;51.890;8.970;2022-08-07T19:00:18;99954.00;;;22.60
18782;BMP180;9519;51.890;8.970;2022-08-07T19:05:28;99953.00;;;22.40
18782;BMP180;9519;51.890;8.970;2022-08-07T19:10:40;99961.00;;;22.20
18782;BMP180;9519;51.890;8.970;2022-08-07T19:15:56;99960.00;;;22.00
18782;BMP180;9519;51.890;8.970;2022-08-07T19:21:02;99961.00;;;21.80
18782;BMP180;9519;51.890;8.970;2022-08-07T19:26:13;99976.00;;;21.60
18782;BMP180;9519;51.890;8.970;2022-08-07T19:31:24;99982.00;;;21.50
18782;BMP180;9519;51.890;8.970;2022-08-07T19:36:33;99985.00;;;21.30
18782;BMP180;9519;51.890;8.970;2022-08-07T19:41:43;100001.00;;;21.20
18782;BMP180;9519;51.890;8.970;2022-08-07T19:46:53;100012.00;;;21.00
18782;BMP180;9519;51.890;8.970;2022-08-07T19:51:56;100010.00;;;20.80
18782;BMP180;9519;51.890;8.970;2022-08-07T19:57:01;100009.00;;;20.70
18782;BMP180;9519;51.890;8.970;2022-08-07T20:02:06;100004.00;;;20.60
18782;BMP180;9519;51.890;8.970;2022-08-07T20:07:12;100010.00;;;20.40
18782;BMP180;9519;51.890;8.970;2022-08-07T20:12:18;100006.00;;;20.20
18782;BMP180;9519;51.890;8.970;2022-08-07T20:17:25;100020.00;;;20.00
18782;BMP180;9519;51.890;8.970;2022-08-07T20:22:33;100023.00;;;19.90
18782;BMP180;9519;51.890;8.970;2022-08-07T20:27:41;100024.00;;;19.70
18782;BMP180;9519;51.890;8.970;2022-08-07T20:32:47;100027.00;;;19.50
18782;BMP180;9519;51.890;8.970;2022-08-07T20:37:52;100030.00;;;19.30
18782;BMP180;9519;51.890;8.970;2022-08-07T20:42:56;100023.00;;;19.10
18782;BMP180;9519;51.890;8.970;2022-08-07T20:48:01;100031.00;;;19.00
18782;BMP180;9519;51.890;8.970;2022-08-07T20:53:09;100043.00;;;18.80
18782;BMP180;9519;51.890;8.970;2022-08-07T20:58:15;100036.00;;;18.60
18782;BMP180;9519;51.890;8.970;2022-08-07T21:03:20;100039.00;;;18.50
18782;BMP180;9519;51.890;8.970;2022-08-07T21:08:30;100032.00;;;18.40
18782;BMP180;9519;51.890;8.970;2022-08-07T21:13:34;100040.00;;;18.20
18782;BMP180;9519;51.890;8.970;2022-08-07T21:18:40;100041.00;;;18.10
18782;BMP180;9519;51.890;8.970;2022-08-07T21:23:56;100052.00;;;18.00
18782;BMP180;9519;51.890;8.970;2022-08-07T21:29:09;100050.00;;;17.80
18782;BMP180;9519;51.890;8.970;2022-08-07T21:34:30;100051.00;;;17.70
18782;BMP180;9519;51.890;8.970;2022-08-07T21:39:50;100054.00;;;17.60
18782;BMP180;9519;51.890;8.970;2022-08-07T21:45:02;100066.00;;;17.40
18782;BMP180;9519;51.890;8.970;2022-08-07T21:50:16;100057.00;;;17.30
18782;BMP180;9519;51.890;8.970;2022-08-07T21:55:30;100058.00;;;17.20
18782;BMP180;9519;51.890;8.970;2022-08-07T22:00:41;100069.00;;;17.20
18782;BMP180;9519;51.890;8.970;2022-08-07T22:05:53;100080.00;;;17.10
18782;BMP180;9519;51.890;8.970;2022-08-07T22:10:59;100074.00;;;17.00
18782;BMP180;9519;51.890;8.970;2022-08-07T22:16:08;100077.00;;;16.90
18782;BMP180;9519;51.890;8.970;2022-08-07T22:21:19;100075.00;;;16.80
18782;BMP180;9519;51.890;8.970;2022-08-07T22:26:32;100065.00;;;16.70
18782;BMP180;9519;51.890;8.970;2022-08-07T22:31:48;100078.00;;;16.60
18782;BMP180;9519;51.890;8.970;2022-08-07T22:37:06;100089.00;;;16.50
18782;BMP180;9519;51.890;8.970;2022-08-07T22:42:16;100091.00;;;16.40
18782;BMP180;9519;51.890;8.970;2022-08-07T22:47:35;100095.00;;;16.30
18782;BMP180;9519;51.890;8.970;2022-08-07T22:53:08;100094.00;;;16.20
18782;BMP180;9519;51.890;8.970;2022-08-07T23:04:38;100087.00;;;16.00
18782;BMP180;9519;51.890;8.970;2022-08-07T23:10:01;100085.00;;;15.80
18782;BMP180;9519;51.890;8.970;2022-08-07T23:15:13;100087.00;;;15.70
18782;BMP180;9519;51.890;8.970;2022-08-07T23:20:40;100092.00;;;15.70
18782;BMP180;9519;51.890;8.970;2022-08-07T23:26:02;100086.00;;;15.60
18782;BMP180;9519;51.890;8.970;2022-08-07T23:31:27;100084.00;;;15.40
18782;BMP180;9519;51.890;8.970;2022-08-07T23:36:44;100093.00;;;15.30
18782;BMP180;9519;51.890;8.970;2022-08-07T23:42:10;100096.00;;;15.20
18782;BMP180;9519;51.890;8.970;2022-08-07T23:47:35;100108.00;;;15.10
18782;BMP180;9519;51.890;8.970;2022-08-07T23:52:54;100096.00;;;15.00
18782;BMP180;9519;51.890;8.970;2022-08-07T23:58:09;100103.00;;;15.00
